sensor_id;sensor_type;location;lat;lon;timestamp;P1;durP1;ratioP1;P2;durP2;ratioP2
11539;SDS011;5826;54.756;9.192;2023-12-20T00:01:02;3.97;;;1.07;;
11539;SDS011;5826;54.756;9.192;2023-12-20T00:03:28;9.90;;;1.83;;
11539;SDS011;5826;54.756;9.192;2023-12-20T00:05:53;6.50;;;1.67;;
11539;SDS011;5826;54.756;9.192;2023-12-20T00:08:19;7.83;;;1.50;;
11539;SDS011;5826;54.756;9.192;2023-12-20T00:10:44;8.43;;;1.70;;
11539;SDS011;5826;54.756;9.192;2023-12-20T00:13:10;5.90;;;1.40;;
11539;SDS011;5826;54.756;9.192;2023-12-20T00:15:36;9.90;;;1.80;;
11539;SDS011;5826;54.756;9.192;2023-12-20T00:18:02;7.93;;;1.60;;
11539;SDS011;5826;54.756;9.192;2023-12-20T00:20:28;8.67;;;1.80;;
11539;SDS011;5826;54.756;9.192;2023-12-20T00:22:56;5.63;;;1.53;;
11539;SDS011;5826;54.756;9.192;2023-12-20T00:25:25;9.47;;;1.50;;
11539;SDS011;5826;54.756;9.192;2023-12-20T00:27:50;4.53;;;1.27;;
11539;SDS011;5826;54.756;9.192;2023-12-20T00:30:16;9.47;;;1.80;;
11539;SDS011;5826;54.756;9.192;2023-12-20T00:32:42;5.03;;;1.30;;
11539;SDS011;5826;54.756;9.192;2023-12-20T00:35:14;6.60;;;1.70;;
11539;SDS011;5826;54.756;9.192;2023-12-20T00:37:40;5.63;;;1.67;;
11539;SDS011;5826;54.756;9.192;2023-12-20T00:40:06;5.10;;;1.17;;
11539;SDS011;5826;54.756;9.192;2023-12-20T00:42:32;4.03;;;1.07;;
11539;SDS011;5826;54.756;9.192;2023-12-20T00:44:58;5.50;;;1.23;;
11539;SDS011;5826;54.756;9.192;2023-12-20T00:47:24;6.37;;;1.30;;
11539;SDS011;5826;54.756;9.192;2023-12-20T00:49:50;6.80;;;1.67;;
11539;SDS011;5826;54.756;9.192;2023-12-20T00:52:16;4.00;;;1.10;;
11539;SDS011;5826;54.756;9.192;2023-12-20T00:54:44;7.77;;;1.37;;
11539;SDS011;5826;54.756;9.192;2023-12-20T00:57:10;10.23;;;1.97;;
11539;SDS011;5826;54.756;9.192;2023-12-20T00:59:36;8.10;;;1.50;;
11539;SDS011;5826;54.756;9.192;2023-12-20T01:02:01;6.50;;;2.17;;
11539;SDS011;5826;54.756;9.192;2023-12-20T01:04:27;9.83;;;2.47;;
11539;SDS011;5826;54.756;9.192;2023-12-20T01:06:52;5.67;;;1.63;;
11539;SDS011;5826;54.756;9.192;2023-12-20T01:09:18;7.27;;;1.40;;
11539;SDS011;5826;54.756;9.192;2023-12-20T01:11:44;4.90;;;1.57;;
11539;SDS011;5826;54.756;9.192;2023-12-20T01:14:11;9.17;;;1.73;;
11539;SDS011;5826;54.756;9.192;2023-12-20T01:16:37;5.00;;;1.43;;
11539;SDS011;5826;54.756;9.192;2023-12-20T01:19:02;6.70;;;1.77;;
11539;SDS011;5826;54.756;9.192;2023-12-20T01:21:28;8.20;;;1.40;;
11539;SDS011;5826;54.756;9.192;2023-12-20T01:23:53;7.23;;;1.70;;
11539;SDS011;5826;54.756;9.192;2023-12-20T01:26:19;5.83;;;1.00;;
11539;SDS011;5826;54.756;9.192;2023-12-20T01:28:44;5.43;;;1.40;;
11539;SDS011;5826;54.756;9.192;2023-12-20T01:31:09;5.63;;;1.20;;
11539;SDS011;5826;54.756;9.192;2023-12-20T01:33:35;7.60;;;2.00;;
11539;SDS011;5826;54.756;9.192;2023-12-20T01:36:00;6.50;;;1.37;;
11539;SDS011;5826;54.756;9.192;2023-12-20T01:38:26;6.73;;;1.57;;
11539;SDS011;5826;54.756;9.192;2023-12-20T01:40:51;5.53;;;1.40;;
11539;SDS011;5826;54.756;9.192;2023-12-20T01:43:17;8.67;;;1.73;;
11539;SDS011;5826;54.756;9.192;2023-12-20T01:45:42;7.40;;;1.60;;
11539;SDS011;5826;54.756;9.192;2023-12-20T01:48:08;5.90;;;1.40;;
11539;SDS011;5826;54.756;9.192;2023-12-20T01:50:35;8.07;;;2.17;;
11539;SDS011;5826;54.756;9.192;2023-12-20T01:53:03;10.80;;;1.87;;
11539;SDS011;5826;54.756;9.192;2023-12-20T01:55:31;8.37;;;1.67;;
11539;SDS011;5826;54.756;9.192;2023-12-20T01:57:58;5.87;;;1.87;;
11539;SDS011;5826;54.756;9.192;2023-12-20T02:00:24;6.87;;;1.43;;
11539;SDS011;5826;54.756;9.192;2023-12-20T02:02:52;5.07;;;1.47;;
11539;SDS011;5826;54.756;9.192;2023-12-20T02:05:20;7.83;;;1.83;;
11539;SDS011;5826;54.756;9.192;2023-12-20T02:07:46;10.20;;;1.93;;
11539;SDS011;5826;54.756;9.192;2023-12-20T02:10:12;9.97;;;1.87;;
11539;SDS011;5826;54.756;9.192;2023-12-20T02:12:38;7.13;;;1.70;;
11539;SDS011;5826;54.756;9.192;2023-12-20T02:15:03;6.60;;;1.60;;
11539;SDS011;5826;54.756;9.192;2023-12-20T02:17:29;5.63;;;1.40;;
11539;SDS011;5826;54.756;9.192;2023-12-20T02:19:56;7.43;;;1.77;;
11539;SDS011;5826;54.756;9.192;2023-12-20T02:22:21;11.43;;;1.77;;
11539;SDS011;5826;54.756;9.192;2023-12-20T02:24:47;8.93;;;2.20;;
11539;SDS011;5826;54.756;9.192;2023-12-20T02:27:12;8.73;;;2.27;;
11539;SDS011;5826;54.756;9.192;2023-12-20T02:29:39;10.27;;;2.30;;
11539;SDS011;5826;54.756;9.192;2023-12-20T02:32:05;11.93;;;2.57;;
11539;SDS011;5826;54.756;9.192;2023-12-20T02:34:31;8.53;;;2.20;;
11539;SDS011;5826;54.756;9.192;2023-12-20T02:36:56;10.67;;;2.13;;
11539;SDS011;5826;54.756;9.192;2023-12-20T02:39:22;13.93;;;2.40;;
11539;SDS011;5826;54.756;9.192;2023-12-20T02:41:48;11.83;;;2.30;;
11539;SDS011;5826;54.756;9.192;2023-12-20T02:44:13;11.37;;;2.00;;
11539;SDS011;5826;54.756;9.192;2023-12-20T02:46:39;10.33;;;2.37;;
11539;SDS011;5826;54.756;9.192;2023-12-20T02:49:05;7.90;;;2.10;;
11539;SDS011;5826;54.756;9.192;2023-12-20T02:51:31;12.93;;;2.63;;
11539;SDS011;5826;54.756;9.192;2023-12-20T02:53:56;8.50;;;2.13;;
11539;SDS011;5826;54.756;9.192;2023-12-20T02:56:22;7.03;;;1.90;;
11539;SDS011;5826;54.756;9.192;2023-12-20T02:58:47;9.47;;;2.13;;
11539;SDS011;5826;54.756;9.192;2023-12-20T03:01:13;8.67;;;1.93;;
11539;SDS011;5826;54.756;9.192;2023-12-20T03:03:39;4.10;;;1.60;;
11539;SDS011;5826;54.756;9.192;2023-12-20T03:06:04;6.90;;;2.00;;
11539;SDS011;5826;54.756;9.192;2023-12-20T03:08:30;5.07;;;1.30;;
11539;SDS011;5826;54.756;9.192;2023-12-20T03:10:55;6.37;;;1.80;;
11539;SDS011;5826;54.756;9.192;2023-12-20T03:13:21;6.50;;;1.70;;
11539;SDS011;5826;54.756;9.192;2023-12-20T03:15:46;6.23;;;1.40;;
11539;SDS011;5826;54.756;9.192;2023-12-20T03:18:12;7.10;;;1.60;;
11539;SDS011;5826;54.756;9.192;2023-12-20T03:20:37;7.53;;;1.83;;
11539;SDS011;5826;54.756;9.192;2023-12-20T03:23:03;8.97;;;2.00;;
11539;SDS011;5826;54.756;9.192;2023-12-20T03:25:29;5.87;;;1.87;;
11539;SDS011;5826;54.756;9.192;2023-12-20T03:27:54;11.73;;;2.20;;
11539;SDS011;5826;54.756;9.192;2023-12-20T03:30:20;10.93;;;2.47;;
11539;SDS011;5826;54.756;9.192;2023-12-20T03:32:46;7.60;;;1.80;;
11539;SDS011;5826;54.756;9.192;2023-12-20T03:35:12;7.87;;;1.50;;
11539;SDS011;5826;54.756;9.192;2023-12-20T03:37:37;9.70;;;2.10;;
11539;SDS011;5826;54.756;9.192;2023-12-20T03:40:03;9.37;;;2.00;;
11539;SDS011;5826;54.756;9.192;2023-12-20T03:42:30;10.43;;;2.03;;
11539;SDS011;5826;54.756;9.192;2023-12-20T03:44:55;8.57;;;2.33;;
11539;SDS011;5826;54.756;9.192;2023-12-20T03:47:21;12.43;;;2.10;;
11539;SDS011;5826;54.756;9.192;2023-12-20T03:49:47;11.57;;;2.43;;
11539;SDS011;5826;54.756;9.192;2023-12-20T03:52:12;9.57;;;2.30;;
11539;SDS011;5826;54.756;9.192;2023-12-20T03:54:38;7.87;;;1.97;;
11539;SDS011;5826;54.756;9.192;2023-12-20T03:57:03;12.03;;;2.27;;
11539;SDS011;5826;54.756;9.192;2023-12-20T03:59:29;11.50;;;2.30;;
11539;SDS011;5826;54.756;9.192;2023-12-20T04:01:59;7.27;;;1.93;;
11539;SDS011;5826;54.756;9.192;2023-12-20T04:04:25;7.27;;;2.00;;
11539;SDS011;5826;54.756;9.192;2023-12-20T04:06:50;4.70;;;1.30;;
11539;SDS011;5826;54.756;9.192;2023-12-20T04:09:16;5.93;;;1.70;;
11539;SDS011;5826;54.756;9.192;2023-12-20T04:11:41;9.30;;;2.03;;
11539;SDS011;5826;54.756;9.192;2023-12-20T04:14:06;7.10;;;1.90;;
11539;SDS011;5826;54.756;9.192;2023-12-20T04:16:32;7.97;;;1.90;;
11539;SDS011;5826;54.756;9.192;2023-12-20T04:18:58;10.30;;;2.20;;
11539;SDS011;5826;54.756;9.192;2023-12-20T04:21:23;9.73;;;2.17;;
11539;SDS011;5826;54.756;9.192;2023-12-20T04:23:49;12.10;;;2.07;;
11539;SDS011;5826;54.756;9.192;2023-12-20T04:26:14;13.10;;;2.60;;
11539;SDS011;5826;54.756;9.192;2023-12-20T04:28:40;8.20;;;2.20;;
11539;SDS011;5826;54.756;9.192;2023-12-20T04:31:05;13.73;;;2.63;;
11539;SDS011;5826;54.756;9.192;2023-12-20T04:33:31;9.63;;;2.33;;
11539;SDS011;5826;54.756;9.192;2023-12-20T04:35:56;11.07;;;2.70;;
11539;SDS011;5826;54.756;9.192;2023-12-20T04:38:22;8.57;;;2.70;;
11539;SDS011;5826;54.756;9.192;2023-12-20T04:40:48;12.03;;;2.17;;
11539;SDS011;5826;54.756;9.192;2023-12-20T04:43:13;9.70;;;2.37;;
11539;SDS011;5826;54.756;9.192;2023-12-20T04:45:39;13.83;;;2.70;;
11539;SDS011;5826;54.756;9.192;2023-12-20T04:48:04;11.37;;;2.30;;
11539;SDS011;5826;54.756;9.192;2023-12-20T04:50:30;16.00;;;3.40;;
11539;SDS011;5826;54.756;9.192;2023-12-20T04:52:56;7.97;;;2.70;;
11539;SDS011;5826;54.756;9.192;2023-12-20T04:55:21;12.60;;;3.37;;
11539;SDS011;5826;54.756;9.192;2023-12-20T04:57:47;12.50;;;2.70;;
11539;SDS011;5826;54.756;9.192;2023-12-20T05:00:13;6.40;;;2.20;;
11539;SDS011;5826;54.756;9.192;2023-12-20T05:02:40;10.53;;;2.47;;
11539;SDS011;5826;54.756;9.192;2023-12-20T05:05:05;16.13;;;3.27;;
11539;SDS011;5826;54.756;9.192;2023-12-20T05:07:31;12.47;;;2.97;;
11539;SDS011;5826;54.756;9.192;2023-12-20T05:09:57;10.30;;;2.90;;
11539;SDS011;5826;54.756;9.192;2023-12-20T05:12:23;12.27;;;2.93;;
11539;SDS011;5826;54.756;9.192;2023-12-20T05:14:49;15.13;;;3.07;;
11539;SDS011;5826;54.756;9.192;2023-12-20T05:17:14;15.20;;;3.90;;
11539;SDS011;5826;54.756;9.192;2023-12-20T05:19:40;11.10;;;3.07;;
11539;SDS011;5826;54.756;9.192;2023-12-20T05:22:05;8.23;;;2.93;;
11539;SDS011;5826;54.756;9.192;2023-12-20T05:24:31;8.73;;;2.20;;
11539;SDS011;5826;54.756;9.192;2023-12-20T05:26:56;8.07;;;1.77;;
11539;SDS011;5826;54.756;9.192;2023-12-20T05:29:22;6.33;;;2.20;;
11539;SDS011;5826;54.756;9.192;2023-12-20T05:31:47;10.13;;;1.80;;
11539;SDS011;5826;54.756;9.192;2023-12-20T05:34:13;7.13;;;2.03;;
11539;SDS011;5826;54.756;9.192;2023-12-20T05:36:38;8.17;;;2.27;;
11539;SDS011;5826;54.756;9.192;2023-12-20T05:39:04;5.83;;;1.67;;
11539;SDS011;5826;54.756;9.192;2023-12-20T05:41:30;8.83;;;1.83;;
11539;SDS011;5826;54.756;9.192;2023-12-20T05:43:56;6.67;;;1.70;;
11539;SDS011;5826;54.756;9.192;2023-12-20T05:46:23;7.93;;;2.10;;
11539;SDS011;5826;54.756;9.192;2023-12-20T05:48:49;7.37;;;2.00;;
11539;SDS011;5826;54.756;9.192;2023-12-20T05:51:14;8.13;;;2.30;;
11539;SDS011;5826;54.756;9.192;2023-12-20T05:53:40;5.30;;;1.83;;
11539;SDS011;5826;54.756;9.192;2023-12-20T05:56:05;9.43;;;1.63;;
11539;SDS011;5826;54.756;9.192;2023-12-20T05:58:32;5.00;;;1.67;;
11539;SDS011;5826;54.756;9.192;2023-12-20T06:00:58;7.27;;;2.23;;
11539;SDS011;5826;54.756;9.192;2023-12-20T06:03:23;7.63;;;1.90;;
11539;SDS011;5826;54.756;9.192;2023-12-20T06:05:49;8.53;;;1.50;;
11539;SDS011;5826;54.756;9.192;2023-12-20T06:08:14;6.33;;;1.87;;
11539;SDS011;5826;54.756;9.192;2023-12-20T06:10:40;11.87;;;2.33;;
11539;SDS011;5826;54.756;9.192;2023-12-20T06:13:05;7.83;;;2.27;;
11539;SDS011;5826;54.756;9.192;2023-12-20T06:15:31;6.80;;;1.60;;
11539;SDS011;5826;54.756;9.192;2023-12-20T06:17:57;9.33;;;1.70;;
11539;SDS011;5826;54.756;9.192;2023-12-20T06:20:23;7.33;;;1.50;;
11539;SDS011;5826;54.756;9.192;2023-12-20T06:22:48;6.93;;;2.00;;
11539;SDS011;5826;54.756;9.192;2023-12-20T06:25:14;15.50;;;3.00;;
11539;SDS011;5826;54.756;9.192;2023-12-20T06:27:39;7.43;;;2.30;;
11539;SDS011;5826;54.756;9.192;2023-12-20T06:30:06;11.80;;;2.53;;
11539;SDS011;5826;54.756;9.192;2023-12-20T06:32:32;10.50;;;2.27;;
11539;SDS011;5826;54.756;9.192;2023-12-20T06:34:59;13.93;;;2.43;;
11539;SDS011;5826;54.756;9.192;2023-12-20T06:37:24;9.27;;;2.27;;
11539;SDS011;5826;54.756;9.192;2023-12-20T06:39:50;7.77;;;2.10;;
11539;SDS011;5826;54.756;9.192;2023-12-20T06:42:15;5.97;;;1.93;;
11539;SDS011;5826;54.756;9.192;2023-12-20T06:44:41;7.00;;;2.00;;
11539;SDS011;5826;54.756;9.192;2023-12-20T06:47:06;7.40;;;1.80;;
11539;SDS011;5826;54.756;9.192;2023-12-20T06:49:33;8.40;;;2.27;;
11539;SDS011;5826;54.756;9.192;2023-12-20T06:51:58;7.33;;;1.90;;
11539;SDS011;5826;54.756;9.192;2023-12-20T06:54:24;13.87;;;3.10;;
11539;SDS011;5826;54.756;9.192;2023-12-20T06:56:49;14.03;;;3.00;;
11539;SDS011;5826;54.756;9.192;2023-12-20T06:59:15;17.70;;;3.13;;
11539;SDS011;5826;54.756;9.192;2023-12-20T07:01:41;10.67;;;2.30;;
11539;SDS011;5826;54.756;9.192;2023-12-20T07:04:06;17.90;;;3.07;;
11539;SDS011;5826;54.756;9.192;2023-12-20T07:06:32;9.57;;;2.73;;
11539;SDS011;5826;54.756;9.192;2023-12-20T07:08:57;11.57;;;2.83;;
11539;SDS011;5826;54.756;9.192;2023-12-20T07:11:23;12.80;;;2.77;;
11539;SDS011;5826;54.756;9.192;2023-12-20T07:13:49;13.47;;;3.07;;
11539;SDS011;5826;54.756;9.192;2023-12-20T07:16:15;20.03;;;3.53;;
11539;SDS011;5826;54.756;9.192;2023-12-20T07:18:40;13.70;;;3.03;;
11539;SDS011;5826;54.756;9.192;2023-12-20T07:21:06;12.63;;;2.67;;
11539;SDS011;5826;54.756;9.192;2023-12-20T07:23:33;15.10;;;3.40;;
11539;SDS011;5826;54.756;9.192;2023-12-20T07:25:58;20.60;;;3.27;;
11539;SDS011;5826;54.756;9.192;2023-12-20T07:28:24;17.83;;;3.53;;
11539;SDS011;5826;54.756;9.192;2023-12-20T07:30:49;16.10;;;2.83;;
11539;SDS011;5826;54.756;9.192;2023-12-20T07:33:15;17.37;;;2.80;;
11539;SDS011;5826;54.756;9.192;2023-12-20T07:35:41;6.43;;;1.67;;
11539;SDS011;5826;54.756;9.192;2023-12-20T07:38:06;3.47;;;1.03;;
11539;SDS011;5826;54.756;9.192;2023-12-20T07:40:32;3.37;;;1.03;;
11539;SDS011;5826;54.756;9.192;2023-12-20T07:42:57;2.30;;;0.90;;
11539;SDS011;5826;54.756;9.192;2023-12-20T07:45:23;4.50;;;1.20;;
11539;SDS011;5826;54.756;9.192;2023-12-20T07:47:49;4.57;;;1.10;;
11539;SDS011;5826;54.756;9.192;2023-12-20T07:50:15;5.77;;;1.03;;
11539;SDS011;5826;54.756;9.192;2023-12-20T07:52:41;2.97;;;0.60;;
11539;SDS011;5826;54.756;9.192;2023-12-20T07:55:06;4.70;;;1.00;;
11539;SDS011;5826;54.756;9.192;2023-12-20T07:57:32;3.23;;;0.90;;
11539;SDS011;5826;54.756;9.192;2023-12-20T07:59:57;5.17;;;0.83;;
11539;SDS011;5826;54.756;9.192;2023-12-20T08:02:23;4.27;;;1.40;;
11539;SDS011;5826;54.756;9.192;2023-12-20T08:04:49;2.17;;;0.93;;
11539;SDS011;5826;54.756;9.192;2023-12-20T08:07:14;3.50;;;0.93;;
11539;SDS011;5826;54.756;9.192;2023-12-20T08:09:39;4.53;;;0.90;;
11539;SDS011;5826;54.756;9.192;2023-12-20T08:12:05;3.07;;;0.90;;
11539;SDS011;5826;54.756;9.192;2023-12-20T08:14:31;4.70;;;1.37;;
11539;SDS011;5826;54.756;9.192;2023-12-20T08:16:56;4.63;;;1.00;;
11539;SDS011;5826;54.756;9.192;2023-12-20T08:19:22;3.27;;;1.43;;
11539;SDS011;5826;54.756;9.192;2023-12-20T08:21:47;4.00;;;1.13;;
11539;SDS011;5826;54.756;9.192;2023-12-20T08:24:13;5.50;;;1.23;;
11539;SDS011;5826;54.756;9.192;2023-12-20T08:26:38;4.17;;;1.03;;
11539;SDS011;5826;54.756;9.192;2023-12-20T08:29:04;4.63;;;1.30;;
11539;SDS011;5826;54.756;9.192;2023-12-20T08:31:29;5.33;;;1.40;;
11539;SDS011;5826;54.756;9.192;2023-12-20T08:33:55;4.90;;;2.03;;
11539;SDS011;5826;54.756;9.192;2023-12-20T08:36:21;7.77;;;2.00;;
11539;SDS011;5826;54.756;9.192;2023-12-20T08:38:48;5.10;;;2.00;;
11539;SDS011;5826;54.756;9.192;2023-12-20T08:41:13;5.87;;;1.70;;
11539;SDS011;5826;54.756;9.192;2023-12-20T08:43:39;4.50;;;1.90;;
11539;SDS011;5826;54.756;9.192;2023-12-20T08:46:08;3.30;;;1.30;;
11539;SDS011;5826;54.756;9.192;2023-12-20T08:48:34;3.70;;;1.20;;
11539;SDS011;5826;54.756;9.192;2023-12-20T08:51:00;6.10;;;3.10;;
11539;SDS011;5826;54.756;9.192;2023-12-20T08:53:25;5.47;;;1.47;;
11539;SDS011;5826;54.756;9.192;2023-12-20T08:55:51;6.73;;;1.50;;
11539;SDS011;5826;54.756;9.192;2023-12-20T08:58:17;4.10;;;1.30;;
11539;SDS011;5826;54.756;9.192;2023-12-20T09:00:42;6.30;;;1.60;;
11539;SDS011;5826;54.756;9.192;2023-12-20T09:03:08;4.30;;;1.20;;
11539;SDS011;5826;54.756;9.192;2023-12-20T09:05:34;2.73;;;1.63;;
11539;SDS011;5826;54.756;9.192;2023-12-20T09:07:59;3.73;;;1.37;;
11539;SDS011;5826;54.756;9.192;2023-12-20T09:10:25;5.27;;;1.17;;
11539;SDS011;5826;54.756;9.192;2023-12-20T09:12:51;7.40;;;1.33;;
11539;SDS011;5826;54.756;9.192;2023-12-20T09:15:21;3.83;;;1.60;;
11539;SDS011;5826;54.756;9.192;2023-12-20T09:17:50;2.60;;;1.20;;
11539;SDS011;5826;54.756;9.192;2023-12-20T09:20:16;5.20;;;1.10;;
11539;SDS011;5826;54.756;9.192;2023-12-20T09:22:42;3.07;;;1.00;;
11539;SDS011;5826;54.756;9.192;2023-12-20T09:25:07;6.33;;;0.97;;
11539;SDS011;5826;54.756;9.192;2023-12-20T09:27:34;3.23;;;0.83;;
11539;SDS011;5826;54.756;9.192;2023-12-20T09:29:59;4.77;;;0.90;;
11539;SDS011;5826;54.756;9.192;2023-12-20T09:32:25;3.83;;;1.00;;
11539;SDS011;5826;54.756;9.192;2023-12-20T09:34:50;3.53;;;0.90;;
11539;SDS011;5826;54.756;9.192;2023-12-20T09:37:16;2.20;;;0.70;;
11539;SDS011;5826;54.756;9.192;2023-12-20T09:39:41;3.67;;;0.70;;
11539;SDS011;5826;54.756;9.192;2023-12-20T09:42:07;4.00;;;0.70;;
11539;SDS011;5826;54.756;9.192;2023-12-20T09:44:33;3.00;;;0.67;;
11539;SDS011;5826;54.756;9.192;2023-12-20T09:47:01;3.00;;;0.90;;
11539;SDS011;5826;54.756;9.192;2023-12-20T09:49:28;4.70;;;0.93;;
11539;SDS011;5826;54.756;9.192;2023-12-20T09:51:55;4.03;;;0.97;;
11539;SDS011;5826;54.756;9.192;2023-12-20T09:54:21;6.77;;;1.23;;
11539;SDS011;5826;54.756;9.192;2023-12-20T09:56:47;7.07;;;1.37;;
11539;SDS011;5826;54.756;9.192;2023-12-20T09:59:13;4.33;;;1.20;;
11539;SDS011;5826;54.756;9.192;2023-12-20T10:01:39;2.77;;;0.90;;
11539;SDS011;5826;54.756;9.192;2023-12-20T10:04:06;6.67;;;1.40;;
11539;SDS011;5826;54.756;9.192;2023-12-20T10:06:38;4.13;;;0.97;;
11539;SDS011;5826;54.756;9.192;2023-12-20T10:09:04;4.00;;;1.00;;
11539;SDS011;5826;54.756;9.192;2023-12-20T10:11:30;4.40;;;1.00;;
11539;SDS011;5826;54.756;9.192;2023-12-20T10:13:59;5.37;;;1.10;;
11539;SDS011;5826;54.756;9.192;2023-12-20T10:16:29;4.83;;;0.80;;
11539;SDS011;5826;54.756;9.192;2023-12-20T10:18:55;3.53;;;0.90;;
11539;SDS011;5826;54.756;9.192;2023-12-20T10:21:24;3.83;;;1.10;;
11539;SDS011;5826;54.756;9.192;2023-12-20T10:23:53;5.77;;;1.57;;
11539;SDS011;5826;54.756;9.192;2023-12-20T10:26:23;7.73;;;1.20;;
11539;SDS011;5826;54.756;9.192;2023-12-20T10:28:53;3.80;;;1.07;;
11539;SDS011;5826;54.756;9.192;2023-12-20T10:31:26;7.50;;;1.50;;
11539;SDS011;5826;54.756;9.192;2023-12-20T10:33:57;4.10;;;1.10;;
11539;SDS011;5826;54.756;9.192;2023-12-20T10:36:29;6.27;;;1.40;;
11539;SDS011;5826;54.756;9.192;2023-12-20T10:38:57;6.10;;;1.57;;
11539;SDS011;5826;54.756;9.192;2023-12-20T10:41:33;5.43;;;1.30;;
11539;SDS011;5826;54.756;9.192;2023-12-20T10:44:00;5.37;;;1.50;;
11539;SDS011;5826;54.756;9.192;2023-12-20T10:46:28;6.07;;;1.40;;
11539;SDS011;5826;54.756;9.192;2023-12-20T10:48:55;6.20;;;1.20;;
11539;SDS011;5826;54.756;9.192;2023-12-20T10:51:24;5.83;;;1.20;;
11539;SDS011;5826;54.756;9.192;2023-12-20T10:53:55;8.07;;;1.40;;
11539;SDS011;5826;54.756;9.192;2023-12-20T10:56:21;6.90;;;1.90;;
11539;SDS011;5826;54.756;9.192;2023-12-20T10:58:48;6.30;;;1.70;;
11539;SDS011;5826;54.756;9.192;2023-12-20T11:01:15;7.67;;;1.40;;
11539;SDS011;5826;54.756;9.192;2023-12-20T11:03:48;8.13;;;1.57;;
11539;SDS011;5826;54.756;9.192;2023-12-20T11:06:32;7.03;;;2.20;;
11539;SDS011;5826;54.756;9.192;2023-12-20T11:12:01;6.03;;;1.23;;
11539;SDS011;5826;54.756;9.192;2023-12-20T11:14:39;5.87;;;1.37;;
11539;SDS011;5826;54.756;9.192;2023-12-20T11:17:11;2.97;;;0.87;;
11539;SDS011;5826;54.756;9.192;2023-12-20T11:22:26;3.33;;;0.80;;
11539;SDS011;5826;54.756;9.192;2023-12-20T11:24:54;3.07;;;1.03;;
11539;SDS011;5826;54.756;9.192;2023-12-20T11:27:27;2.47;;;1.30;;
11539;SDS011;5826;54.756;9.192;2023-12-20T11:29:53;3.97;;;1.10;;
11539;SDS011;5826;54.756;9.192;2023-12-20T11:34:57;3.00;;;1.27;;
11539;SDS011;5826;54.756;9.192;2023-12-20T11:37:30;5.10;;;1.70;;
11539;SDS011;5826;54.756;9.192;2023-12-20T11:40:03;6.87;;;2.07;;
11539;SDS011;5826;54.756;9.192;2023-12-20T11:42:40;6.40;;;1.77;;
11539;SDS011;5826;54.756;9.192;2023-12-20T11:45:08;6.47;;;2.07;;
11539;SDS011;5826;54.756;9.192;2023-12-20T11:47:46;9.20;;;3.60;;
11539;SDS011;5826;54.756;9.192;2023-12-20T11:50:16;4.90;;;2.00;;
11539;SDS011;5826;54.756;9.192;2023-12-20T11:52:43;12.17;;;2.80;;
11539;SDS011;5826;54.756;9.192;2023-12-20T11:55:08;9.67;;;2.37;;
11539;SDS011;5826;54.756;9.192;2023-12-20T11:57:34;5.63;;;2.30;;
11539;SDS011;5826;54.756;9.192;2023-12-20T12:00:01;6.93;;;2.17;;
11539;SDS011;5826;54.756;9.192;2023-12-20T12:02:27;8.80;;;2.53;;
11539;SDS011;5826;54.756;9.192;2023-12-20T12:04:53;8.33;;;2.93;;
11539;SDS011;5826;54.756;9.192;2023-12-20T12:07:18;10.50;;;3.10;;
11539;SDS011;5826;54.756;9.192;2023-12-20T12:09:45;10.00;;;3.50;;
11539;SDS011;5826;54.756;9.192;2023-12-20T12:12:11;9.00;;;3.07;;
11539;SDS011;5826;54.756;9.192;2023-12-20T12:14:37;12.43;;;3.50;;
11539;SDS011;5826;54.756;9.192;2023-12-20T12:17:03;12.10;;;3.20;;
11539;SDS011;5826;54.756;9.192;2023-12-20T12:19:29;9.73;;;2.80;;
11539;SDS011;5826;54.756;9.192;2023-12-20T12:24:36;13.57;;;3.40;;
11539;SDS011;5826;54.756;9.192;2023-12-20T12:27:02;9.37;;;3.17;;
11539;SDS011;5826;54.756;9.192;2023-12-20T12:29:28;13.67;;;3.60;;
11539;SDS011;5826;54.756;9.192;2023-12-20T12:31:54;11.20;;;3.30;;
11539;SDS011;5826;54.756;9.192;2023-12-20T12:34:20;10.40;;;3.50;;
11539;SDS011;5826;54.756;9.192;2023-12-20T12:36:45;10.83;;;3.13;;
11539;SDS011;5826;54.756;9.192;2023-12-20T12:39:14;10.60;;;3.30;;
11539;SDS011;5826;54.756;9.192;2023-12-20T12:41:40;10.47;;;3.37;;
11539;SDS011;5826;54.756;9.192;2023-12-20T12:44:06;9.17;;;3.10;;
11539;SDS011;5826;54.756;9.192;2023-12-20T12:46:31;11.02;;;3.38;;
11539;SDS011;5826;54.756;9.192;2023-12-20T12:48:57;6.63;;;2.80;;
11539;SDS011;5826;54.756;9.192;2023-12-20T12:51:23;10.40;;;3.00;;
11539;SDS011;5826;54.756;9.192;2023-12-20T12:53:49;10.27;;;3.27;;
11539;SDS011;5826;54.756;9.192;2023-12-20T12:56:14;6.40;;;2.93;;
11539;SDS011;5826;54.756;9.192;2023-12-20T12:58:40;7.70;;;2.78;;
11539;SDS011;5826;54.756;9.192;2023-12-20T13:01:06;8.80;;;3.17;;
11539;SDS011;5826;54.756;9.192;2023-12-20T13:03:32;9.43;;;4.13;;
11539;SDS011;5826;54.756;9.192;2023-12-20T13:05:57;10.40;;;3.70;;
11539;SDS011;5826;54.756;9.192;2023-12-20T13:08:23;11.13;;;4.43;;
11539;SDS011;5826;54.756;9.192;2023-12-20T13:10:49;9.23;;;3.57;;
11539;SDS011;5826;54.756;9.192;2023-12-20T13:13:14;11.30;;;3.85;;
11539;SDS011;5826;54.756;9.192;2023-12-20T13:15:40;10.27;;;3.20;;
11539;SDS011;5826;54.756;9.192;2023-12-20T13:18:05;9.27;;;3.60;;
11539;SDS011;5826;54.756;9.192;2023-12-20T13:20:31;10.13;;;3.85;;
11539;SDS011;5826;54.756;9.192;2023-12-20T13:22:58;8.98;;;3.25;;
11539;SDS011;5826;54.756;9.192;2023-12-20T13:25:24;7.38;;;3.05;;
11539;SDS011;5826;54.756;9.192;2023-12-20T13:27:49;11.15;;;3.70;;
11539;SDS011;5826;54.756;9.192;2023-12-20T13:30:16;10.57;;;3.45;;
11539;SDS011;5826;54.756;9.192;2023-12-20T13:32:42;11.93;;;3.75;;
11539;SDS011;5826;54.756;9.192;2023-12-20T13:35:08;9.68;;;3.40;;
11539;SDS011;5826;54.756;9.192;2023-12-20T13:37:33;9.25;;;3.20;;
11539;SDS011;5826;54.756;9.192;2023-12-20T13:39:59;8.23;;;3.10;;
11539;SDS011;5826;54.756;9.192;2023-12-20T13:42:25;13.05;;;4.28;;
11539;SDS011;5826;54.756;9.192;2023-12-20T13:44:52;8.23;;;3.30;;
11539;SDS011;5826;54.756;9.192;2023-12-20T13:47:18;10.17;;;4.00;;
11539;SDS011;5826;54.756;9.192;2023-12-20T13:49:44;11.30;;;3.60;;
11539;SDS011;5826;54.756;9.192;2023-12-20T13:52:10;9.30;;;3.30;;
11539;SDS011;5826;54.756;9.192;2023-12-20T13:54:36;7.95;;;4.47;;
11539;SDS011;5826;54.756;9.192;2023-12-20T13:57:02;13.43;;;5.10;;
11539;SDS011;5826;54.756;9.192;2023-12-20T13:59:28;7.70;;;3.83;;
11539;SDS011;5826;54.756;9.192;2023-12-20T14:01:53;10.15;;;3.78;;
11539;SDS011;5826;54.756;9.192;2023-12-20T14:04:19;9.57;;;3.13;;
11539;SDS011;5826;54.756;9.192;2023-12-20T14:06:46;8.32;;;3.42;;
11539;SDS011;5826;54.756;9.192;2023-12-20T14:09:12;9.53;;;5.60;;
11539;SDS011;5826;54.756;9.192;2023-12-20T14:11:38;10.27;;;4.27;;
11539;SDS011;5826;54.756;9.192;2023-12-20T14:14:06;10.93;;;3.90;;
11539;SDS011;5826;54.756;9.192;2023-12-20T14:16:32;9.50;;;3.77;;
11539;SDS011;5826;54.756;9.192;2023-12-20T14:18:58;11.37;;;4.73;;
11539;SDS011;5826;54.756;9.192;2023-12-20T14:21:24;10.37;;;4.83;;
11539;SDS011;5826;54.756;9.192;2023-12-20T14:23:49;9.83;;;4.07;;
11539;SDS011;5826;54.756;9.192;2023-12-20T14:26:15;9.10;;;4.27;;
11539;SDS011;5826;54.756;9.192;2023-12-20T14:28:41;8.90;;;4.10;;
11539;SDS011;5826;54.756;9.192;2023-12-20T14:31:07;15.50;;;5.17;;
11539;SDS011;5826;54.756;9.192;2023-12-20T14:33:33;14.67;;;4.73;;
11539;SDS011;5826;54.756;9.192;2023-12-20T14:35:59;13.23;;;5.30;;
11539;SDS011;5826;54.756;9.192;2023-12-20T14:38:25;23.07;;;5.60;;
11539;SDS011;5826;54.756;9.192;2023-12-20T14:40:50;13.43;;;4.70;;
11539;SDS011;5826;54.756;9.192;2023-12-20T14:43:16;11.23;;;4.27;;
11539;SDS011;5826;54.756;9.192;2023-12-20T14:45:42;11.10;;;4.13;;
11539;SDS011;5826;54.756;9.192;2023-12-20T14:48:07;10.70;;;3.70;;
11539;SDS011;5826;54.756;9.192;2023-12-20T14:50:33;15.40;;;3.67;;
11539;SDS011;5826;54.756;9.192;2023-12-20T14:52:59;15.73;;;4.20;;
11539;SDS011;5826;54.756;9.192;2023-12-20T14:55:24;14.53;;;3.40;;
11539;SDS011;5826;54.756;9.192;2023-12-20T14:57:52;14.03;;;3.97;;
11539;SDS011;5826;54.756;9.192;2023-12-20T15:00:18;16.52;;;4.65;;
11539;SDS011;5826;54.756;9.192;2023-12-20T15:02:44;14.50;;;4.30;;